Time;durP1;ratioP1;P1;durP2;ratioP2;P2;SDS_P1;SDS_P2;PMS_P1;PMS_P2;Temp;Humidity;BMP_temperature;BMP_pressure;BME280_temperature;BME280_humidity;BME280_pressure;Samples;Min_cycle;Max_cycle;Signal;HPM_P1;HPM_P2
2023/02/20 00:00:38;;;;;;;9.70;5.75;;;7.30;99.90;;;;;;4209211;28;20040;-71
2023/02/20 00:02:39;;;;;;;13.30;6.47;;;7.30;99.90;;;;;;4209886;28;20036;-71
2023/02/20 00:04:39;;;;;;;10.35;5.90;;;7.30;99.90;;;;;;4210591;28;20029;-71
2023/02/20 00:06:40;;;;;;;11.02;6.32;;;7.20;99.90;;;;;;4209179;28;20112;-71
2023/02/20 00:08:40;;;;;;;9.85;6.18;;;7.20;99.90;;;;;;4210692;28;20035;-71
2023/02/20 00:10:41;;;;;;;13.00;6.45;;;7.20;99.90;;;;;;4208818;28;20070;-72
2023/02/20 00:12:42;;;;;;;10.18;6.15;;;7.20;99.90;;;;;;4209867;28;20043;-71
2023/02/20 00:14:43;;;;;;;11.40;6.75;;;7.30;99.90;;;;;;4210673;28;20039;-71
2023/02/20 00:16:46;;;;;;;11.05;6.72;;;7.30;99.90;;;;;;4209969;28;20036;-72
2023/02/20 00:18:47;;;;;;;11.27;6.75;;;7.20;99.90;;;;;;4210376;28;20028;-71
2023/02/20 00:20:47;;;;;;;11.23;7.28;;;7.20;99.90;;;;;;4209053;28;20116;-71
2023/02/20 00:22:48;;;;;;;12.18;7.10;;;7.20;99.90;;;;;;4208329;28;20111;-69
2023/02/20 00:24:49;;;;;;;10.27;6.55;;;7.20;99.90;;;;;;4210489;28;20506;-71
2023/02/20 00:26:52;;;;;;;13.23;7.15;;;7.20;99.90;;;;;;4209250;28;20127;-71
2023/02/20 00:28:52;;;;;;;10.90;7.20;;;7.20;99.90;;;;;;4208567;28;20482;-71
2023/02/20 00:30:53;;;;;;;10.98;7.35;;;7.20;99.90;;;;;;4208903;28;20127;-70
2023/02/20 00:32:55;;;;;;;12.45;7.90;;;7.20;99.90;;;;;;4209877;28;20082;-71
2023/02/20 00:34:56;;;;;;;10.43;7.30;;;7.20;99.90;;;;;;4213501;28;20479;-71
2023/02/20 00:36:56;;;;;;;10.57;7.25;;;7.20;99.90;;;;;;4212116;28;20098;-71
2023/02/20 00:38:57;;;;;;;11.30;7.20;;;7.20;99.90;;;;;;4213697;28;20119;-71
2023/02/20 00:40:57;;;;;;;14.77;8.00;;;7.20;99.90;;;;;;4212440;28;20483;-72
2023/02/20 00:42:58;;;;;;;12.52;7.18;;;7.20;99.90;;;;;;4212632;28;20028;-71
2023/02/20 00:44:58;;;;;;;15.05;8.82;;;7.20;99.90;;;;;;4213851;28;20335;-71
2023/02/20 00:46:59;;;;;;;12.80;7.78;;;7.20;99.90;;;;;;4212825;28;20383;-72
2023/02/20 00:49:00;;;;;;;12.48;7.57;;;7.20;99.90;;;;;;4213573;28;20073;-72
2023/02/20 00:51:00;;;;;;;14.00;8.05;;;7.20;99.90;;;;;;4210164;28;20028;-72
2023/02/20 00:53:02;;;;;;;13.20;8.18;;;7.20;99.90;;;;;;4211416;28;20491;-72
2023/02/20 00:55:02;;;;;;;14.15;7.70;;;7.20;99.90;;;;;;4213385;28;20040;-72
2023/02/20 00:57:03;;;;;;;11.88;7.45;;;7.20;99.90;;;;;;4212877;28;20036;-72
2023/02/20 00:59:04;;;;;;;12.70;7.35;;;7.20;99.90;;;;;;4213105;28;20036;-71
2023/02/20 01:01:05;;;;;;;17.27;8.75;;;7.20;99.90;;;;;;4210485;28;20040;-71
2023/02/20 01:03:05;;;;;;;11.52;7.22;;;7.20;99.90;;;;;;4212396;28;20562;-72
2023/02/20 01:05:06;;;;;;;13.48;7.32;;;7.20;99.90;;;;;;4208932;28;20028;-73
2023/02/20 01:07:07;;;;;;;13.77;8.15;;;7.20;99.90;;;;;;4212114;28;20032;-71
2023/02/20 01:09:07;;;;;;;14.50;7.57;;;7.20;99.90;;;;;;4213306;28;20024;-72
2023/02/20 01:11:08;;;;;;;11.77;7.30;;;7.20;99.90;;;;;;4211859;28;20048;-71
2023/02/20 01:13:08;;;;;;;10.95;6.88;;;7.20;99.90;;;;;;4212567;28;20040;-72
2023/02/20 01:15:12;;;;;;;13.35;7.38;;;7.20;99.90;;;;;;4212453;28;20028;-72
2023/02/20 01:17:13;;;;;;;12.73;7.30;;;7.20;99.90;;;;;;4213222;28;20502;-71
2023/02/20 01:19:14;;;;;;;13.40;6.68;;;7.20;99.90;;;;;;4213211;28;20123;-71
2023/02/20 01:21:15;;;;;;;11.18;6.93;;;7.20;99.90;;;;;;4210817;28;20479;-72
2023/02/20 01:23:15;;;;;;;13.25;7.20;;;7.20;99.90;;;;;;4212549;28;20028;-72
2023/02/20 01:25:16;;;;;;;11.75;7.13;;;7.20;99.90;;;;;;4207897;28;20028;-72
2023/02/20 01:27:16;;;;;;;15.35;7.75;;;7.10;99.90;;;;;;4212197;28;20533;-71
2023/02/20 01:29:17;;;;;;;13.20;7.68;;;7.20;99.90;;;;;;4212082;28;20127;-71
2023/02/20 01:31:18;;;;;;;10.88;6.70;;;7.20;99.90;;;;;;4210123;28;20040;-72
2023/02/20 01:33:18;;;;;;;11.60;7.15;;;7.20;99.90;;;;;;4211413;28;20028;-71
2023/02/20 01:35:19;;;;;;;10.20;7.07;;;7.20;99.90;;;;;;4209879;28;20058;-70
2023/02/20 01:37:19;;;;;;;12.70;7.18;;;7.20;99.90;;;;;;4211903;28;20032;-69
2023/02/20 01:39:25;;;;;;;11.93;7.47;;;7.30;99.90;;;;;;4211668;28;20111;-71
2023/02/20 01:41:25;;;;;;;13.35;7.60;;;7.30;99.90;;;;;;4209301;28;20055;-71
2023/02/20 01:43:26;;;;;;;12.43;6.97;;;7.30;99.90;;;;;;4211394;28;20043;-71
2023/02/20 01:45:32;;;;;;;10.63;7.22;;;7.30;99.90;;;;;;4210642;28;20393;-71
2023/02/20 01:47:32;;;;;;;15.38;8.52;;;7.30;99.90;;;;;;4207617;28;20061;-71
2023/02/20 01:49:46;;;;;;;10.80;6.93;;;7.30;99.90;;;;;;4211062;28;20040;-71
2023/02/20 01:51:54;;;;;;;10.82;7.38;;;7.30;99.90;;;;;;4209626;28;20116;-71
2023/02/20 01:53:55;;;;;;;11.75;7.35;;;7.30;99.90;;;;;;4211366;28;20044;-70
2023/02/20 01:56:02;;;;;;;13.38;8.85;;;7.30;99.90;;;;;;4210954;28;20035;-70
2023/02/20 01:58:15;;;;;;;12.20;7.88;;;7.30;99.90;;;;;;4211621;28;20024;-71
2023/02/20 02:00:18;;;;;;;14.07;8.05;;;7.30;99.90;;;;;;4210288;28;20563;-72
2023/02/20 02:02:20;;;;;;;15.63;8.85;;;7.40;99.90;;;;;;4209421;28;20039;-71
2023/02/20 02:04:21;;;;;;;17.35;8.98;;;7.40;99.90;;;;;;4209227;28;20032;-71
2023/02/20 02:06:24;;;;;;;16.73;10.13;;;7.30;99.90;;;;;;4210811;28;20039;-71
2023/02/20 02:08:27;;;;;;;15.65;9.40;;;7.30;99.90;;;;;;4211268;28;20032;-71
2023/02/20 02:10:35;;;;;;;18.08;10.77;;;7.40;99.90;;;;;;4205600;28;20028;-71
2023/02/20 02:12:36;;;;;;;15.50;10.23;;;7.30;99.90;;;;;;4210986;28;20055;-71
2023/02/20 02:14:37;;;;;;;19.27;10.57;;;7.30;99.90;;;;;;4211290;28;20032;-72
2023/02/20 02:17:04;;;;;;;20.48;10.93;;;7.30;99.90;;;;;;4210248;28;20067;-71
2023/02/20 02:19:17;;;;;;;20.52;11.23;;;7.30;99.90;;;;;;4206393;28;20047;-72
2023/02/20 02:21:38;;;;;;;23.10;11.57;;;7.20;99.90;;;;;;4209675;28;20032;-71
2023/02/20 02:23:48;;;;;;;19.33;11.32;;;7.20;99.90;;;;;;4210397;28;20040;-71
2023/02/20 02:28:45;;;;;;;18.30;10.75;;;7.20;99.90;;;;;;4149205;27;20363;-70
2023/02/20 02:31:22;;;;;;;23.52;11.57;;;7.20;99.90;;;;;;4148410;28;20037;-70
2023/02/20 02:33:46;;;;;;;20.65;10.98;;;7.20;99.90;;;;;;4148044;28;20080;-70
2023/02/20 02:36:22;;;;;;;20.70;11.48;;;7.20;99.90;;;;;;4150929;28;20044;-70
2023/02/20 02:38:45;;;;;;;19.00;10.77;;;7.20;99.90;;;;;;4146732;28;20030;-69
2023/02/20 02:41:07;;;;;;;22.38;11.25;;;7.20;99.90;;;;;;4150209;28;20037;-70
2023/02/20 02:43:39;;;;;;;19.90;11.48;;;7.20;99.90;;;;;;4145801;28;20041;-70
2023/02/20 02:45:50;;;;;;;21.48;12.48;;;7.20;99.90;;;;;;4149139;28;20034;-69
2023/02/20 02:48:26;;;;;;;20.25;12.32;;;7.20;99.90;;;;;;4150961;28;20049;-69
2023/02/20 02:50:37;;;;;;;23.70;12.00;;;7.20;99.90;;;;;;4152358;28;20042;-69
2023/02/20 02:52:47;;;;;;;20.67;11.75;;;7.20;99.90;;;;;;4148397;28;20033;-69
2023/02/20 02:54:48;;;;;;;20.30;11.88;;;7.20;99.90;;;;;;4157516;28;20030;-70
2023/02/20 02:56:49;;;;;;;20.60;11.13;;;7.20;99.90;;;;;;4157080;28;20030;-70
2023/02/20 02:58:53;;;;;;;20.55;11.38;;;7.20;99.90;;;;;;4157789;28;20034;-70
2023/02/20 03:01:00;;;;;;;23.33;11.50;;;7.20;99.90;;;;;;4156060;28;20392;-70
2023/02/20 03:03:22;;;;;;;19.80;11.43;;;7.20;99.90;;;;;;4150109;28;20030;-70
2023/02/20 03:05:38;;;;;;;17.45;10.65;;;7.20;99.90;;;;;;4150682;28;20086;-69
2023/02/20 03:07:41;;;;;;;23.02;13.02;;;7.20;99.90;;;;;;4156416;28;20076;-70
2023/02/20 03:09:47;;;;;;;;;;;7.20;99.90;;;;;;4158008;28;20037;-70
2023/02/20 03:11:48;;;;;;;21.45;11.63;;;7.20;99.90;;;;;;4151793;28;19924;-70
2023/02/20 03:16:25;;;;;;;18.83;11.18;;;7.10;99.90;;;;;;4145842;28;20038;-70
2023/02/20 03:18:37;;;;;;;19.15;10.75;;;7.10;99.90;;;;;;4146693;28;20501;-69
2023/02/20 03:20:44;;;;;;;22.88;12.23;;;7.10;99.90;;;;;;4148325;28;20038;-69
2023/02/20 03:23:00;;;;;;;17.88;11.60;;;7.10;99.90;;;;;;4154132;28;20510;-70
2023/02/20 03:25:13;;;;;;;23.90;11.85;;;7.10;99.90;;;;;;4148614;28;20034;-70
2023/02/20 03:27:14;;;;;;;20.05;11.07;;;7.10;99.90;;;;;;4151450;28;20042;-71
2023/02/20 03:29:26;;;;;;;20.83;11.13;;;7.10;99.90;;;;;;4148878;28;20045;-71
2023/02/20 03:31:36;;;;;;;20.73;10.98;;;7.10;99.90;;;;;;4144363;28;20038;-70
2023/02/20 03:43:24;;;;;;;22.80;10.50;;;7.00;99.90;;;;;;4135089;28;20025;-69
2023/02/20 03:45:27;;;;;;;21.17;11.30;;;7.10;99.90;;;;;;4134567;28;20041;-70
2023/02/20 03:47:30;;;;;;;22.98;9.80;;;7.00;99.90;;;;;;4139441;28;20041;-69
2023/02/20 03:51:55;;;;;;;17.33;9.43;;;7.00;99.90;;;;;;4138969;28;20045;-69
2023/02/20 03:53:57;;;;;;;21.35;9.77;;;7.00;99.90;;;;;;4136590;28;20046;-69
2023/02/20 03:56:02;;;;;;;21.83;9.55;;;7.00;99.90;;;;;;4132470;28;20038;-69
2023/02/20 03:58:06;;;;;;;15.82;8.50;;;7.00;99.90;;;;;;4139532;28;20030;-70
2023/02/20 04:00:17;;;;;;;22.08;9.73;;;7.00;99.90;;;;;;4138772;28;20045;-71
2023/02/20 04:02:33;;;;;;;18.15;9.57;;;7.10;99.90;;;;;;4137638;28;20038;-70
2023/02/20 04:04:42;;;;;;;15.50;8.43;;;7.00;99.90;;;;;;4139055;28;20050;-69
2023/02/20 04:06:47;;;;;;;22.90;9.18;;;7.00;99.90;;;;;;4138688;28;20091;-70
2023/02/20 04:09:03;;;;;;;18.23;8.63;;;7.00;99.90;;;;;;4137777;28;20060;-70
2023/02/20 04:11:45;;;;;;;18.33;9.68;;;7.00;99.90;;;;;;4136882;28;20493;-70
2023/02/20 04:13:49;;;;;;;19.40;8.55;;;7.00;99.90;;;;;;4129089;28;20057;-70
2023/02/20 04:15:49;;;;;;;16.23;8.63;;;7.00;99.90;;;;;;4145085;28;20108;-70
2023/02/20 04:18:15;;;;;;;13.35;8.10;;;7.00;99.90;;;;;;4144097;28;20041;-70
2023/02/20 04:20:16;;;;;;;17.73;8.55;;;7.00;99.90;;;;;;4131737;28;20583;-70
2023/02/20 04:22:23;;;;;;;17.63;8.68;;;7.00;99.90;;;;;;4142100;28;20034;-69
2023/02/20 04:24:38;;;;;;;16.25;8.38;;;7.00;99.90;;;;;;4141591;28;20117;-69
2023/02/20 04:26:38;;;;;;;18.55;8.55;;;7.00;99.90;;;;;;4130850;28;20038;-70
2023/02/20 04:28:39;;;;;;;15.90;7.75;;;6.90;99.90;;;;;;4136102;28;20631;-70
2023/02/20 04:30:40;;;;;;;13.73;7.18;;;6.90;99.90;;;;;;4136080;28;20022;-70
2023/02/20 04:32:40;;;;;;;17.90;7.43;;;7.00;99.90;;;;;;4141376;28;20026;-69
2023/02/20 04:34:41;;;;;;;17.63;7.90;;;6.90;99.90;;;;;;4139837;28;20038;-70
2023/02/20 04:36:42;;;;;;;16.60;8.10;;;6.90;99.90;;;;;;4134670;28;20066;-70
2023/02/20 04:38:42;;;;;;;14.07;7.55;;;6.90;99.90;;;;;;4138014;28;20336;-70
2023/02/20 04:40:43;;;;;;;15.68;7.20;;;6.90;99.90;;;;;;4138226;28;20055;-69
2023/02/20 04:42:43;;;;;;;17.38;7.65;;;6.90;99.90;;;;;;4140090;28;20018;-70
2023/02/20 04:44:44;;;;;;;15.38;7.38;;;7.00;99.90;;;;;;4138273;28;20088;-70
2023/02/20 04:46:44;;;;;;;14.65;7.13;;;6.90;99.90;;;;;;4135604;28;20388;-70
2023/02/20 04:48:45;;;;;;;15.60;7.00;;;6.90;99.90;;;;;;4139905;28;20061;-70
2023/02/20 04:50:46;;;;;;;14.27;6.93;;;6.90;99.90;;;;;;4141333;28;20133;-70
2023/02/20 04:52:46;;;;;;;13.25;6.63;;;6.90;99.90;;;;;;4137076;28;20421;-70
2023/02/20 04:54:48;;;;;;;17.35;6.40;;;6.90;99.90;;;;;;4134392;28;20100;-71
2023/02/20 04:56:48;;;;;;;13.18;6.80;;;7.00;99.90;;;;;;4137317;28;20046;-70
2023/02/20 04:58:50;;;;;;;17.00;7.30;;;7.00;99.90;;;;;;4139285;28;20130;-70
2023/02/20 05:00:51;;;;;;;18.17;7.80;;;7.00;99.90;;;;;;4135977;28;20054;-70
2023/02/20 05:02:52;;;;;;;15.57;7.38;;;7.00;99.90;;;;;;4139887;28;20042;-70
2023/02/20 05:04:52;;;;;;;12.20;5.97;;;7.00;99.90;;;;;;4147908;28;20489;-69
2023/02/20 05:06:54;;;;;;;13.07;6.22;;;7.00;99.90;;;;;;4136000;28;20026;-69
2023/02/20 05:08:55;;;;;;;16.73;6.65;;;7.00;99.90;;;;;;4134954;28;20026;-70
2023/02/20 05:10:56;;;;;;;15.95;7.65;;;7.00;99.90;;;;;;4135068;28;20569;-70
2023/02/20 05:12:57;;;;;;;14.50;7.28;;;7.00;99.90;;;;;;4137006;28;20439;-68
2023/02/20 05:14:57;;;;;;;17.23;7.72;;;7.10;99.90;;;;;;4135158;28;20584;-69
2023/02/20 05:16:58;;;;;;;17.27;7.43;;;7.00;99.90;;;;;;4134245;28;20041;-69
2023/02/20 05:19:02;;;;;;;14.88;6.57;;;7.00;99.90;;;;;;4149839;28;20037;-70
2023/02/20 05:23:21;;;;;;;16.90;7.53;;;7.00;99.90;;;;;;4138213;28;20041;-70
2023/02/20 05:25:22;;;;;;;21.00;8.30;;;7.00;99.90;;;;;;4138919;28;20101;-70
2023/02/20 05:27:23;;;;;;;14.15;7.35;;;7.00;99.90;;;;;;4134005;28;20041;-69
2023/02/20 05:29:24;;;;;;;14.70;7.30;;;7.00;99.90;;;;;;4139218;28;20400;-70
2023/02/20 05:31:24;;;;;;;14.50;7.32;;;7.00;99.90;;;;;;4136519;28;20042;-70
2023/02/20 05:33:25;;;;;;;16.33;8.43;;;7.00;99.90;;;;;;4137978;28;20473;-70
2023/02/20 05:35:25;;;;;;;17.42;8.43;;;7.00;99.90;;;;;;4141949;28;20104;-70
2023/02/20 05:37:27;;;;;;;17.27;8.10;;;7.10;99.90;;;;;;4138280;28;20125;-69
2023/02/20 05:39:27;;;;;;;13.38;7.53;;;7.00;99.90;;;;;;4136237;28;20579;-70
2023/02/20 05:41:28;;;;;;;18.90;8.25;;;7.00;99.90;;;;;;4132952;28;20105;-70
2023/02/20 05:43:29;;;;;;;17.67;8.38;;;7.00;99.90;;;;;;4137068;28;20039;-70
2023/02/20 05:45:29;;;;;;;20.13;8.82;;;6.90;99.90;;;;;;4141587;28;20496;-69
2023/02/20 05:47:30;;;;;;;14.80;7.78;;;6.90;99.90;;;;;;4139556;28;20405;-70
2023/02/20 05:49:31;;;;;;;20.13;8.88;;;6.90;99.90;;;;;;4136021;28;20481;-70
2023/02/20 05:51:31;;;;;;;16.88;8.00;;;7.00;99.90;;;;;;4137103;28;20030;-70
2023/02/20 05:53:32;;;;;;;17.70;8.65;;;7.00;99.90;;;;;;4130591;28;20057;-69
2023/02/20 05:55:33;;;;;;;18.13;9.13;;;7.00;99.90;;;;;;4133980;28;20038;-70
2023/02/20 05:57:33;;;;;;;19.08;9.23;;;7.00;99.90;;;;;;4136807;28;20033;-70
2023/02/20 05:59:34;;;;;;;20.98;10.32;;;7.00;99.90;;;;;;4138735;28;20085;-70
2023/02/20 06:01:34;;;;;;;21.40;9.95;;;6.90;99.90;;;;;;4133110;28;20401;-69
2023/02/20 06:03:35;;;;;;;21.77;10.38;;;6.90;99.90;;;;;;4134556;28;20045;-70
2023/02/20 06:05:36;;;;;;;17.85;9.25;;;7.00;99.90;;;;;;4138282;28;20121;-70
2023/02/20 06:07:36;;;;;;;20.60;9.80;;;6.90;99.90;;;;;;4137293;28;20029;-70
2023/02/20 06:09:41;;;;;;;23.73;10.23;;;6.90;99.90;;;;;;4134239;28;20030;-70
2023/02/20 06:11:48;;;;;;;19.02;9.32;;;6.90;99.90;;;;;;4137550;28;20034;-71
2023/02/20 06:13:48;;;;;;;19.15;10.10;;;6.90;99.90;;;;;;4133877;28;20061;-70
2023/02/20 06:15:49;;;;;;;19.40;9.50;;;6.90;99.90;;;;;;4130363;28;20033;-70
2023/02/20 06:17:50;;;;;;;18.73;8.75;;;6.90;99.90;;;;;;4139972;28;20365;-72
2023/02/20 06:19:50;;;;;;;18.35;8.93;;;6.90;99.90;;;;;;4134201;28;20557;-71
2023/02/20 06:21:52;;;;;;;18.85;9.82;;;6.90;99.90;;;;;;4137439;28;20444;-72
2023/02/20 06:23:53;;;;;;;18.00;9.95;;;6.90;99.90;;;;;;4139824;28;20121;-71
2023/02/20 06:25:54;;;;;;;19.42;10.10;;;6.90;99.90;;;;;;4137642;28;20432;-70
2023/02/20 06:27:54;;;;;;;20.02;9.10;;;6.90;99.90;;;;;;4136806;28;20128;-72
2023/02/20 06:29:55;;;;;;;19.08;9.68;;;6.90;99.90;;;;;;4132846;28;20041;-70
2023/02/20 06:31:59;;;;;;;18.90;9.18;;;6.90;99.90;;;;;;4135484;28;20038;-71
2023/02/20 06:33:59;;;;;;;20.83;10.38;;;6.90;99.90;;;;;;4134916;28;20428;-72
2023/02/20 06:36:00;;;;;;;22.73;9.48;;;7.00;99.90;;;;;;4137917;28;20041;-72
2023/02/20 06:38:01;;;;;;;22.08;10.88;;;7.00;99.90;;;;;;4139143;28;20041;-69
2023/02/20 06:40:04;;;;;;;18.17;10.10;;;7.00;99.90;;;;;;4143960;28;20042;-71
2023/02/20 06:42:05;;;;;;;25.65;10.48;;;6.90;99.90;;;;;;4136619;28;20039;-72
2023/02/20 06:44:06;;;;;;;17.30;9.38;;;6.90;99.90;;;;;;4136498;28;20030;-71
2023/02/20 06:46:06;;;;;;;21.42;10.35;;;6.90;99.90;;;;;;4135770;28;20539;-72
2023/02/20 06:48:08;;;;;;;18.60;10.07;;;7.00;99.90;;;;;;4138611;28;20048;-72
2023/02/20 06:50:08;;;;;;;18.05;10.55;;;6.90;99.90;;;;;;4132065;28;20049;-72
2023/02/20 06:52:09;;;;;;;26.60;9.77;;;7.00;99.90;;;;;;4135335;28;20042;-72
2023/02/20 06:54:11;;;;;;;15.95;9.25;;;7.00;99.90;;;;;;4137368;28;20038;-72
2023/02/20 06:56:18;;;;;;;19.30;9.55;;;7.00;99.90;;;;;;4139610;28;20421;-72
2023/02/20 06:58:19;;;;;;;19.92;10.48;;;7.00;99.90;;;;;;4135662;28;20342;-72
2023/02/20 07:00:20;;;;;;;17.83;9.55;;;7.00;99.90;;;;;;4131266;28;20080;-72
2023/02/20 07:02:20;;;;;;;23.27;10.60;;;7.10;99.90;;;;;;4136231;28;22516;-72
2023/02/20 07:04:25;;;;;;;22.38;10.23;;;7.10;99.90;;;;;;4134842;28;20049;-72
2023/02/20 07:06:25;;;;;;;20.23;10.32;;;7.00;99.90;;;;;;4132780;28;20513;-71
2023/02/20 07:08:26;;;;;;;15.70;9.45;;;7.10;99.90;;;;;;4139835;28;20116;-71
2023/02/20 07:10:26;;;;;;;15.85;9.27;;;7.00;99.90;;;;;;4136850;28;20048;-71
2023/02/20 07:12:31;;;;;;;15.95;9.60;;;7.10;99.90;;;;;;4132231;28;20165;-71
2023/02/20 07:14:32;;;;;;;23.20;9.52;;;7.10;99.90;;;;;;4139830;28;20104;-71
2023/02/20 07:16:32;;;;;;;25.63;10.40;;;7.10;99.90;;;;;;4142068;28;20038;-71
2023/02/20 07:18:33;;;;;;;15.48;9.13;;;7.20;99.90;;;;;;4139251;28;20058;-72
2023/02/20 07:20:33;;;;;;;20.05;9.63;;;7.20;99.90;;;;;;4131456;28;20644;-72
2023/02/20 07:22:34;;;;;;;21.70;10.82;;;7.20;99.90;;;;;;4138085;28;20053;-71
2023/02/20 07:24:35;;;;;;;28.35;10.77;;;7.20;99.90;;;;;;4138605;28;20378;-71
2023/02/20 07:26:38;;;;;;;21.42;9.55;;;7.20;99.90;;;;;;4140802;28;20046;-72
2023/02/20 07:28:38;;;;;;;24.02;10.55;;;7.20;99.90;;;;;;4141358;28;20037;-72
2023/02/20 07:30:39;;;;;;;22.08;10.27;;;7.20;99.90;;;;;;4132998;28;22209;-72
2023/02/20 07:32:39;;;;;;;17.52;9.70;;;7.20;99.90;;;;;;4141343;28;20096;-72
2023/02/20 07:34:40;;;;;;;17.55;9.85;;;7.20;99.90;;;;;;4140405;28;20050;-72
2023/02/20 07:36:41;;;;;;;24.02;10.68;;;7.20;99.90;;;;;;4136291;28;20036;-72
2023/02/20 07:38:42;;;;;;;19.50;10.18;;;7.30;99.90;;;;;;4139518;28;20030;-72
2023/02/20 07:40:43;;;;;;;20.35;9.80;;;7.30;99.90;;;;;;4138491;28;20065;-72
2023/02/20 07:42:43;;;;;;;20.77;9.95;;;7.30;99.90;;;;;;4137649;28;20351;-72
2023/02/20 07:44:45;;;;;;;26.85;11.48;;;7.30;99.90;;;;;;4140491;28;20142;-72
2023/02/20 07:46:46;;;;;;;20.52;9.40;;;7.30;99.90;;;;;;4138468;28;20038;-73
2023/02/20 07:48:47;;;;;;;19.67;10.52;;;7.30;99.90;;;;;;4136536;28;20092;-72
2023/02/20 07:50:47;;;;;;;20.17;10.35;;;7.40;99.90;;;;;;4135211;28;20049;-72
2023/02/20 07:52:48;;;;;;;19.30;10.57;;;7.40;99.90;;;;;;4137583;28;20048;-72
2023/02/20 07:54:48;;;;;;;20.67;9.57;;;7.40;99.90;;;;;;4138921;28;20392;-72
2023/02/20 07:56:49;;;;;;;21.20;10.60;;;7.40;99.90;;;;;;4136639;28;20463;-72
2023/02/20 07:58:50;;;;;;;24.75;10.20;;;7.50;99.90;;;;;;4136480;28;20061;-72
2023/02/20 08:00:52;;;;;;;24.60;10.73;;;7.50;99.90;;;;;;4136786;28;20041;-72
2023/02/20 08:02:53;;;;;;;23.65;11.10;;;7.50;99.90;;;;;;4134523;28;20037;-72
2023/02/20 08:04:54;;;;;;;19.90;10.88;;;7.50;99.90;;;;;;4139735;28;20049;-72
2023/02/20 08:06:54;;;;;;;20.63;10.27;;;7.50;99.90;;;;;;4139378;28;20135;-72
2023/02/20 08:08:55;;;;;;;17.77;10.45;;;7.50;99.90;;;;;;4141065;28;20767;-71
2023/02/20 08:10:55;;;;;;;23.77;11.27;;;7.50;99.90;;;;;;4139555;28;20436;-72
2023/02/20 08:12:56;;;;;;;24.90;10.65;;;7.60;99.90;;;;;;4141496;28;20069;-72
2023/02/20 08:14:56;;;;;;;20.13;9.60;;;7.60;99.90;;;;;;4136718;28;20677;-71
2023/02/20 08:16:57;;;;;;;20.50;10.23;;;7.60;99.90;;;;;;4139505;28;20608;-72
2023/02/20 08:18:58;;;;;;;20.17;10.35;;;7.60;99.90;;;;;;4138355;28;20040;-72
2023/02/20 08:20:59;;;;;;;25.67;11.68;;;7.70;99.90;;;;;;4136351;28;20037;-72
2023/02/20 08:22:59;;;;;;;30.95;12.18;;;7.70;99.90;;;;;;4138803;28;20034;-72
2023/02/20 08:25:00;;;;;;;20.92;10.80;;;7.70;99.90;;;;;;4137753;28;20053;-73
2023/02/20 08:27:00;;;;;;;23.60;10.35;;;7.70;99.90;;;;;;4136298;28;20389;-73
2023/02/20 08:29:01;;;;;;;23.90;10.57;;;7.70;99.90;;;;;;4139045;28;20095;-70
2023/02/20 08:31:02;;;;;;;26.02;11.98;;;7.80;99.90;;;;;;4135500;28;20041;-71
2023/02/20 08:33:05;;;;;;;25.92;12.13;;;7.80;99.90;;;;;;4136154;28;20046;-72
2023/02/20 08:35:05;;;;;;;27.20;11.48;;;7.80;99.90;;;;;;4141245;28;20067;-74
2023/02/20 08:37:08;;;;;;;20.77;10.93;;;7.80;99.90;;;;;;4135396;28;20049;-73
2023/02/20 08:39:09;;;;;;;25.55;11.63;;;7.80;99.90;;;;;;4142277;28;20044;-73
2023/02/20 08:41:11;;;;;;;18.73;9.90;;;7.80;99.90;;;;;;4138835;28;20057;-73
2023/02/20 08:43:12;;;;;;;22.05;11.20;;;7.80;99.90;;;;;;4140130;28;20034;-74
2023/02/20 08:45:13;;;;;;;25.08;11.63;;;7.90;99.90;;;;;;4137963;28;20113;-74
2023/02/20 08:47:14;;;;;;;23.65;12.02;;;7.90;99.90;;;;;;4138655;28;20431;-74
2023/02/20 08:49:16;;;;;;;20.83;9.82;;;7.90;99.90;;;;;;4140320;28;20042;-74
2023/02/20 08:51:19;;;;;;;20.65;11.43;;;7.90;99.90;;;;;;4138760;28;20084;-74
2023/02/20 08:53:20;;;;;;;23.15;11.00;;;7.90;99.90;;;;;;4138829;28;20034;-74
2023/02/20 08:55:20;;;;;;;21.95;10.77;;;7.90;99.90;;;;;;4138710;28;20033;-74
2023/02/20 08:57:21;;;;;;;18.25;10.02;;;7.90;99.90;;;;;;4134778;28;20050;-74
2023/02/20 08:59:22;;;;;;;26.52;12.25;;;7.90;99.90;;;;;;4138637;28;20034;-73
2023/02/20 09:01:23;;;;;;;22.27;10.38;;;7.90;99.90;;;;;;4135359;28;20501;-74
2023/02/20 09:03:25;;;;;;;24.53;11.37;;;7.90;99.90;;;;;;4136873;28;20038;-75
2023/02/20 09:05:26;;;;;;;16.95;9.93;;;8.00;99.90;;;;;;4136866;28;20041;-73
2023/02/20 09:07:27;;;;;;;24.77;11.55;;;8.00;99.90;;;;;;4135827;28;20056;-73
2023/02/20 09:09:28;;;;;;;21.55;9.85;;;8.00;99.90;;;;;;4139526;28;20037;-74
2023/02/20 09:11:29;;;;;;;18.40;10.33;;;8.00;99.90;;;;;;4134542;28;20050;-74
2023/02/20 09:13:30;;;;;;;18.60;10.32;;;8.00;99.90;;;;;;4138507;28;20291;-74
2023/02/20 09:15:34;;;;;;;20.88;10.23;;;8.00;99.90;;;;;;4135396;28;20050;-74
2023/02/20 09:17:35;;;;;;;18.75;10.90;;;8.00;99.90;;;;;;4138257;28;20516;-74
2023/02/20 09:19:36;;;;;;;18.10;10.13;;;8.10;99.90;;;;;;4135718;28;20046;-74
2023/02/20 09:21:36;;;;;;;17.90;10.27;;;8.00;99.90;;;;;;4129114;28;20636;-74
2023/02/20 09:23:37;;;;;;;15.45;9.10;;;8.10;99.90;;;;;;4127955;28;20038;-74
2023/02/20 09:25:38;;;;;;;26.02;10.60;;;8.10;99.90;;;;;;4139229;28;20052;-74
2023/02/20 09:27:38;;;;;;;20.20;10.40;;;8.10;99.90;;;;;;4132471;28;20058;-74
2023/02/20 09:29:41;;;;;;;22.77;10.18;;;8.10;99.90;;;;;;4136858;28;20066;-74
2023/02/20 09:31:42;;;;;;;19.20;9.82;;;8.10;99.90;;;;;;4136085;28;20057;-73
2023/02/20 09:33:46;;;;;;;20.50;9.65;;;8.20;99.90;;;;;;4138769;28;20436;-73
2023/02/20 09:35:50;;;;;;;20.92;9.90;;;8.20;99.90;;;;;;4138680;28;20141;-73
2023/02/20 09:37:51;;;;;;;20.65;8.82;;;8.20;99.90;;;;;;4139423;28;20399;-73
2023/02/20 09:39:52;;;;;;;15.05;8.80;;;8.30;99.90;;;;;;4134977;28;20030;-73
2023/02/20 09:42:14;;;;;;;17.65;10.10;;;8.30;99.90;;;;;;4135198;28;20344;-72
2023/02/20 09:44:41;;;;;;;17.25;9.93;;;8.30;99.90;;;;;;4139446;28;20051;-73
2023/02/20 09:46:45;;;;;;;15.65;9.15;;;8.30;99.90;;;;;;4138033;28;20118;-74
2023/02/20 09:49:07;;;;;;;21.48;10.55;;;8.30;99.90;;;;;;4151887;28;20033;-73
2023/02/20 09:51:15;;;;;;;18.95;9.75;;;8.30;99.90;;;;;;4138584;28;20047;-73
2023/02/20 09:53:37;;;;;;;13.85;8.43;;;8.40;99.90;;;;;;4137838;28;20048;-73
2023/02/20 09:55:39;;;;;;;15.20;8.55;;;8.40;99.90;;;;;;4137007;28;20034;-73
2023/02/20 09:57:41;;;;;;;15.68;8.52;;;8.40;99.90;;;;;;4133015;28;20781;-73
2023/02/20 09:59:52;;;;;;;16.13;9.43;;;8.40;99.90;;;;;;4139587;28;20038;-73
2023/02/20 10:01:56;;;;;;;22.42;9.63;;;8.40;99.90;;;;;;4136502;28;20129;-73
2023/02/20 10:04:02;;;;;;;19.88;9.45;;;8.40;99.90;;;;;;4137292;28;20041;-72
2023/02/20 10:06:16;;;;;;;17.50;9.52;;;8.40;99.90;;;;;;4136115;28;20111;-73
2023/02/20 10:08:20;;;;;;;18.80;10.50;;;8.40;99.90;;;;;;4140029;28;20042;-73
2023/02/20 10:10:28;;;;;;;17.00;9.57;;;8.40;99.90;;;;;;4138556;28;20676;-74
2023/02/20 10:12:37;;;;;;;19.75;9.63;;;8.40;99.90;;;;;;4137953;28;20057;-73
2023/02/20 10:15:02;;;;;;;23.15;9.38;;;8.40;99.90;;;;;;4138257;28;20060;-73
2023/02/20 10:17:26;;;;;;;18.95;9.23;;;8.40;99.90;;;;;;4136334;28;20030;-73
2023/02/20 10:19:49;;;;;;;21.35;9.68;;;8.50;99.90;;;;;;4138483;28;20049;-74
2023/02/20 10:22:11;;;;;;;18.63;9.15;;;8.40;99.90;;;;;;4132891;28;20231;-73
2023/02/20 10:25:03;;;;;;;18.52;8.77;;;8.50;99.90;;;;;;4131282;28;20388;-73
2023/02/20 10:27:24;;;;;;;19.80;9.30;;;8.50;99.90;;;;;;4144012;28;20125;-73
2023/02/20 10:29:28;;;;;;;23.05;9.23;;;8.50;99.90;;;;;;4137463;28;20636;-74
2023/02/20 10:31:42;;;;;;;18.42;9.52;;;8.50;99.90;;;;;;4136516;28;20045;-72
2023/02/20 10:33:49;;;;;;;12.93;8.43;;;8.50;99.90;;;;;;4139248;28;20100;-74
2023/02/20 10:36:20;;;;;;;28.15;9.32;;;8.50;99.90;;;;;;4134112;28;20057;-73
2023/02/20 10:38:26;;;;;;;19.52;8.50;;;8.50;99.90;;;;;;4139315;28;20081;-74
2023/02/20 10:40:33;;;;;;;23.35;9.43;;;8.50;99.90;;;;;;4136917;28;20069;-74
2023/02/20 10:42:42;;;;;;;14.82;8.32;;;8.50;99.90;;;;;;4136726;28;20409;-73
2023/02/20 10:44:59;;;;;;;20.35;9.70;;;8.60;99.90;;;;;;4136213;28;20046;-73
2023/02/20 10:47:26;;;;;;;17.00;8.82;;;8.60;99.90;;;;;;4136810;28;20045;-73
2023/02/20 10:49:46;;;;;;;18.05;8.93;;;8.60;99.90;;;;;;4140007;28;20400;-73
2023/02/20 10:51:51;;;;;;;20.23;9.77;;;8.60;99.90;;;;;;4140068;28;20093;-74
2023/02/20 10:54:06;;;;;;;15.25;8.60;;;8.60;99.90;;;;;;4141266;28;20037;-74
2023/02/20 10:56:21;;;;;;;21.33;8.70;;;8.60;99.90;;;;;;4138386;28;20041;-73
2023/02/20 10:58:30;;;;;;;18.13;8.27;;;8.70;99.90;;;;;;4138804;28;20030;-73
2023/02/20 11:01:11;;;;;;;15.02;7.50;;;8.70;99.90;;;;;;4137988;28;20073;-74
2023/02/20 11:03:40;;;;;;;17.70;8.18;;;8.70;99.90;;;;;;4128547;28;20026;-73
2023/02/20 11:05:47;;;;;;;17.73;8.63;;;8.70;99.90;;;;;;4137721;28;20033;-73